Time;durP1;ratioP1;P1;durP2;ratioP2;P2;SDS_P1;SDS_P2;PMS_P1;PMS_P2;Temp;Humidity;BMP_temperature;BMP_pressure;BME280_temperature;BME280_humidity;BME280_pressure;Samples;Min_cycle;Max_cycle;Signal;HPM_P1;HPM_P2
2020/12/13 00:02:22;;;;;;;4.63;2.72;;;;;;;20.85;42.93;98977.69;4991933;28;20034;-74
2020/12/13 00:04:47;;;;;;;3.03;1.95;;;;;;;20.86;42.84;98978.56;4992144;28;20415;-78
2020/12/13 00:07:13;;;;;;;3.65;2.22;;;;;;;20.84;42.82;98971.59;4990741;28;20045;-73
2020/12/13 00:09:39;;;;;;;3.33;2.60;;;;;;;20.84;42.81;98970.72;4992111;28;20041;-74
2020/12/13 00:12:05;;;;;;;4.72;2.35;;;;;;;20.83;42.79;98967.25;4991057;28;20030;-77
2020/12/13 00:14:30;;;;;;;2.95;2.13;;;;;;;20.83;42.94;98979.53;4991980;28;20522;-75
2020/12/13 00:16:56;;;;;;;3.90;2.42;;;;;;;20.84;42.97;98975.97;4991880;28;20419;-73
2020/12/13 00:19:21;;;;;;;5.13;2.40;;;;;;;20.83;42.78;98969.88;4991963;28;20043;-78
2020/12/13 00:21:51;;;;;;;3.85;2.35;;;;;;;20.84;42.64;98979.47;4992184;28;20042;-75
2020/12/13 00:24:21;;;;;;;5.28;2.42;;;;;;;20.82;43.03;98980.44;4995113;28;20026;-76
2020/12/13 00:26:47;;;;;;;4.35;2.10;;;;;;;20.82;42.90;98989.22;4994472;28;20022;-74
2020/12/13 00:29:13;;;;;;;6.10;2.03;;;;;;;20.80;43.18;98988.44;4992591;28;20037;-75
2020/12/13 00:31:40;;;;;;;3.90;2.17;;;;;;;20.80;42.92;98988.44;4995959;28;20116;-75
2020/12/13 00:34:06;;;;;;;4.35;1.95;;;;;;;20.80;42.99;98990.19;4995940;28;20026;-75
2020/12/13 00:36:31;;;;;;;5.88;1.85;;;;;;;20.78;42.91;98992.91;4994324;28;20045;-74
2020/12/13 00:38:56;;;;;;;3.72;2.10;;;;;;;20.78;43.05;98994.69;4994070;28;20113;-76
2020/12/13 00:41:22;;;;;;;3.67;2.30;;;;;;;20.77;42.90;98990.34;4994312;28;20032;-73
2020/12/13 00:43:47;;;;;;;3.15;1.90;;;;;;;20.78;43.10;98997.31;4992410;28;20030;-74
2020/12/13 00:46:13;;;;;;;3.38;2.05;;;;;;;20.76;42.91;98993.91;4993920;28;20097;-73
2020/12/13 00:48:39;;;;;;;4.40;1.70;;;;;;;20.77;42.85;98996.44;4999421;28;20038;-76
2020/12/13 00:51:04;;;;;;;3.40;1.98;;;;;;;20.76;42.83;98999.16;4994281;28;20117;-74
2020/12/13 00:53:30;;;;;;;4.80;1.85;;;;;;;20.75;43.00;99007.94;4993773;28;20566;-74
2020/12/13 00:55:55;;;;;;;3.33;2.10;;;;;;;20.74;42.77;99006.22;4993624;28;20030;-74
2020/12/13 00:58:20;;;;;;;4.78;2.38;;;;;;;20.76;43.01;99010.53;4993980;28;20085;-75
2020/12/13 01:00:45;;;;;;;2.67;1.63;;;;;;;20.75;42.94;99021.97;4978235;28;20031;-76
2020/12/13 01:03:11;;;;;;;4.22;2.25;;;;;;;20.74;43.05;99024.66;4993852;28;20038;-75
2020/12/13 01:05:37;;;;;;;3.45;1.95;;;;;;;20.73;42.93;99018.53;4992460;28;20054;-74
2020/12/13 01:08:02;;;;;;;3.00;1.77;;;;;;;20.73;42.86;99026.41;4995675;28;20109;-74
2020/12/13 01:10:28;;;;;;;4.57;2.03;;;;;;;20.73;42.99;99022.94;4993778;28;20127;-76
2020/12/13 01:12:53;;;;;;;3.72;2.00;;;;;;;20.74;42.90;99024.66;4994356;28;20643;-76
2020/12/13 01:15:19;;;;;;;3.63;2.10;;;;;;;20.73;42.84;99028.22;4993350;28;20035;-76
2020/12/13 01:17:46;;;;;;;2.90;1.83;;;;;;;20.73;42.83;99028.22;4993762;28;20126;-75
2020/12/13 01:20:11;;;;;;;2.88;1.58;;;;;;;20.72;43.06;99029.97;4993151;28;20049;-74
2020/12/13 01:22:38;;;;;;;4.68;1.88;;;;;;;20.73;42.69;99044.00;4994387;28;20042;-75
2020/12/13 01:25:06;;;;;;;3.00;2.00;;;;;;;20.72;43.00;99043.13;4995082;28;20038;-73
2020/12/13 01:27:31;;;;;;;2.92;1.70;;;;;;;20.72;42.88;99042.28;5012717;28;20041;-77
2020/12/13 01:29:57;;;;;;;4.40;1.65;;;;;;;20.73;42.77;99059.81;4993435;28;20038;-76
2020/12/13 01:32:22;;;;;;;2.97;2.00;;;;;;;20.71;42.89;99051.09;4996062;28;20034;-75
2020/12/13 01:34:47;;;;;;;2.55;1.70;;;;;;;20.72;43.15;99058.09;5001082;28;20041;-74
2020/12/13 01:37:13;;;;;;;2.63;1.60;;;;;;;20.71;42.85;99061.63;4999843;28;20034;-75
2020/12/13 01:39:38;;;;;;;2.63;1.70;;;;;;;20.72;42.83;99076.50;5004832;28;20513;-76
2020/12/13 01:42:04;;;;;;;2.95;1.83;;;;;;;20.71;42.78;99067.75;5012468;28;20041;-77
2020/12/13 01:44:34;;;;;;;2.55;1.73;;;;;;;20.71;42.89;99077.44;5001075;28;20031;-77
2020/12/13 01:47:01;;;;;;;4.32;1.67;;;;;;;20.71;42.87;99074.81;5014319;28;20041;-74
2020/12/13 01:49:30;;;;;;;3.17;1.90;;;;;;;20.72;42.62;99081.78;4997791;28;20301;-75
2020/12/13 01:54:39;;;;;;;3.33;1.77;;;;;;;20.71;42.75;99087.97;4994583;28;20077;-76
2020/12/13 01:57:05;;;;;;;2.10;1.17;;;;;;;20.71;42.94;99095.84;4994306;28;20459;-76
2020/12/13 01:59:34;;;;;;;3.33;1.80;;;;;;;20.68;42.65;99096.84;4994502;28;20451;-74
2020/12/13 02:02:03;;;;;;;2.78;1.50;;;;;;;20.69;42.74;99109.94;4992940;28;20038;-74
2020/12/13 02:04:33;;;;;;;2.40;1.70;;;;;;;20.67;42.76;99111.78;4993966;28;20046;-77
2020/12/13 02:07:01;;;;;;;2.85;1.45;;;;;;;20.69;42.90;99098.56;4994235;28;20186;-77
2020/12/13 02:09:26;;;;;;;3.13;1.88;;;;;;;20.71;42.77;99106.38;4992872;28;20034;-74
2020/12/13 02:11:52;;;;;;;3.00;1.80;;;;;;;20.69;42.95;99099.41;4993092;28;20042;-78
2020/12/13 02:14:18;;;;;;;3.08;1.60;;;;;;;20.69;42.94;99112.56;4992203;28;20035;-75
2020/12/13 02:16:45;;;;;;;2.78;1.77;;;;;;;20.72;43.02;99116.00;4993971;28;20037;-75
2020/12/13 02:19:15;;;;;;;3.42;1.30;;;;;;;20.70;42.89;99121.34;4993897;28;20042;-75
2020/12/13 02:21:51;;;;;;;2.58;1.48;;;;;;;20.69;42.82;99125.72;4993823;28;20030;-75
2020/12/13 02:24:20;;;;;;;2.90;1.52;;;;;;;20.69;42.70;99131.00;4992355;28;20033;-74
2020/12/13 02:26:46;;;;;;;2.80;1.40;;;;;;;20.71;42.85;99125.66;4993428;28;20027;-75
2020/12/13 02:29:13;;;;;;;2.13;1.40;;;;;;;20.72;42.78;99131.78;4993718;28;20042;-74
2020/12/13 02:31:39;;;;;;;3.60;1.70;;;;;;;20.71;42.78;99128.28;4993853;28;20497;-77
2020/12/13 02:34:05;;;;;;;2.60;1.20;;;;;;;20.72;42.78;99143.16;4993441;28;20058;-74
2020/12/13 02:36:32;;;;;;;3.50;1.42;;;;;;;20.72;42.88;99134.44;4976027;28;20511;-75
2020/12/13 02:38:58;;;;;;;2.90;1.90;;;;;;;20.71;42.76;99135.34;5008617;28;20062;-76
2020/12/13 02:41:24;;;;;;;2.78;1.65;;;;;;;20.72;42.92;99143.16;4992465;28;20031;-72
2020/12/13 02:43:49;;;;;;;2.70;1.55;;;;;;;20.72;42.75;99143.16;4991133;28;20042;-79
2020/12/13 02:46:15;;;;;;;2.58;1.45;;;;;;;20.71;42.92;99151.97;4990422;28;20110;-74
2020/12/13 02:48:40;;;;;;;2.60;1.50;;;;;;;20.71;42.94;99145.88;4992176;28;20034;-75
2020/12/13 02:51:06;;;;;;;2.75;1.63;;;;;;;20.71;42.87;99148.50;5001828;28;20509;-74
2020/12/13 02:53:33;;;;;;;2.42;1.55;;;;;;;20.69;42.95;99146.78;5027726;28;20038;-74
2020/12/13 02:55:59;;;;;;;3.45;1.33;;;;;;;20.69;42.84;99151.22;5012959;28;20063;-74
2020/12/13 02:58:24;;;;;;;2.22;1.58;;;;;;;20.68;43.00;99152.97;5012851;28;20033;-76
2020/12/13 03:00:50;;;;;;;2.83;1.38;;;;;;;20.67;42.60;99148.63;5012602;28;20066;-76
2020/12/13 03:03:15;;;;;;;4.03;1.83;;;;;;;20.68;42.95;99149.50;5012618;28;20372;-76
2020/12/13 03:05:41;;;;;;;4.05;1.70;;;;;;;20.68;42.86;99160.88;5012560;28;20061;-74
2020/12/13 03:08:07;;;;;;;3.60;1.48;;;;;;;20.68;42.86;99152.97;5011202;28;20129;-76
2020/12/13 03:10:32;;;;;;;3.00;1.70;;;;;;;20.68;42.62;99152.97;5012766;28;20053;-74
2020/12/13 03:12:58;;;;;;;2.53;1.30;;;;;;;20.66;42.74;99154.81;5012673;28;20037;-75
2020/12/13 03:15:23;;;;;;;5.40;1.58;;;;;;;20.68;42.66;99162.66;5012082;28;20030;-76
2020/12/13 03:17:49;;;;;;;2.30;1.38;;;;;;;20.66;42.94;99160.06;5012407;28;20033;-77
2020/12/13 03:20:14;;;;;;;3.35;1.40;;;;;;;20.67;42.92;99163.56;5012233;28;20026;-74
2020/12/13 03:22:40;;;;;;;2.00;1.30;;;;;;;20.67;42.83;99169.69;5009819;28;20111;-74
2020/12/13 03:25:05;;;;;;;4.50;1.60;;;;;;;20.66;42.91;99175.88;5009070;28;20122;-74
2020/12/13 03:27:31;;;;;;;2.92;1.63;;;;;;;20.68;43.02;99178.47;5010889;28;20030;-77
2020/12/13 03:29:56;;;;;;;3.47;1.63;;;;;;;20.67;42.78;99182.84;5012421;28;20049;-75
2020/12/13 03:32:25;;;;;;;1.92;1.10;;;;;;;20.70;42.63;99189.78;5010289;28;20458;-77
2020/12/13 03:34:50;;;;;;;3.40;1.50;;;;;;;20.67;42.89;99188.09;4991540;28;20030;-75
2020/12/13 03:37:16;;;;;;;3.45;1.40;;;;;;;20.68;42.83;99192.47;4975104;28;20089;-74
2020/12/13 03:39:42;;;;;;;3.50;1.50;;;;;;;20.67;42.86;99197.78;4996443;28;20052;-76
2020/12/13 03:42:07;;;;;;;2.83;1.60;;;;;;;20.67;42.80;99192.53;4985312;28;20031;-75
2020/12/13 03:44:33;;;;;;;2.53;1.27;;;;;;;20.66;42.85;99194.28;4987880;28;20088;-75
2020/12/13 03:46:58;;;;;;;3.25;1.30;;;;;;;20.66;42.72;99194.28;5013102;28;20084;-76
2020/12/13 03:49:24;;;;;;;2.63;1.30;;;;;;;20.68;42.63;99192.47;5008319;28;20038;-74
2020/12/13 03:51:49;;;;;;;2.97;1.52;;;;;;;20.65;42.90;99195.22;5010811;28;20038;-75
2020/12/13 03:54:15;;;;;;;3.35;1.52;;;;;;;20.66;42.73;99191.66;5014588;28;20129;-75
2020/12/13 03:56:40;;;;;;;4.20;1.40;;;;;;;20.67;42.61;99198.63;5010616;28;20120;-73
2020/12/13 03:59:05;;;;;;;1.80;1.23;;;;;;;20.67;42.94;99205.69;5011914;28;20502;-78
2020/12/13 04:01:31;;;;;;;3.05;1.45;;;;;;;20.67;42.94;99210.97;5012889;28;20034;-76
2020/12/13 04:03:56;;;;;;;3.53;1.40;;;;;;;20.66;42.83;99210.09;5011591;28;20042;-74
2020/12/13 04:06:21;;;;;;;3.55;1.50;;;;;;;20.66;43.12;99219.78;5011016;28;20034;-76
2020/12/13 04:08:47;;;;;;;3.60;1.73;;;;;;;20.67;42.70;99217.06;5011843;28;20100;-75
2020/12/13 04:11:12;;;;;;;3.83;1.63;;;;;;;20.66;42.64;99217.13;5010649;28;20444;-76
2020/12/13 04:13:37;;;;;;;2.42;1.50;;;;;;;20.67;42.70;99221.50;5011294;28;20542;-74
2020/12/13 04:16:03;;;;;;;3.03;1.55;;;;;;;20.66;42.64;99227.66;5010463;28;20049;-75
2020/12/13 04:18:28;;;;;;;2.92;1.50;;;;;;;20.65;42.74;99228.59;5010481;28;20108;-75
2020/12/13 04:20:54;;;;;;;3.13;1.17;;;;;;;20.64;42.72;99238.25;5011611;28;20056;-76
2020/12/13 04:23:19;;;;;;;1.80;1.25;;;;;;;20.67;42.83;99238.13;5008208;28;20040;-74
2020/12/13 04:25:44;;;;;;;4.38;1.65;;;;;;;20.64;42.66;99232.97;5011711;28;20209;-78
2020/12/13 04:28:10;;;;;;;4.85;1.55;;;;;;;20.65;42.67;99247.00;5010164;28;20068;-76
2020/12/13 04:30:35;;;;;;;3.15;1.48;;;;;;;20.64;42.93;99248.78;5011427;28;20109;-75
2020/12/13 04:33:01;;;;;;;5.00;1.52;;;;;;;20.65;42.73;99254.91;5004780;28;20113;-74
2020/12/13 04:35:26;;;;;;;2.72;1.30;;;;;;;20.64;42.74;99254.03;4991979;28;20031;-73
2020/12/13 04:37:51;;;;;;;2.78;1.50;;;;;;;20.65;42.82;99255.75;4991955;28;20048;-76
2020/12/13 04:40:17;;;;;;;2.80;1.55;;;;;;;20.64;42.69;99254.03;4990817;28;20031;-76
2020/12/13 04:42:42;;;;;;;2.03;1.20;;;;;;;20.64;42.60;99254.03;4992160;28;20110;-75
2020/12/13 04:45:09;;;;;;;4.63;1.65;;;;;;;20.63;42.78;99256.72;4991318;28;20046;-78
2020/12/13 04:48:00;;;;;;;5.82;2.05;;;;;;;20.63;42.74;99252.31;4992650;28;20026;-74
2020/12/13 04:50:26;;;;;;;4.10;1.75;;;;;;;20.65;42.85;99254.91;5007761;28;20080;-74
2020/12/13 04:52:56;;;;;;;4.55;1.50;;;;;;;20.64;42.88;99261.94;4992130;28;20464;-75
2020/12/13 04:55:22;;;;;;;3.38;1.75;;;;;;;20.64;42.76;99261.09;4991935;28;20062;-76
2020/12/13 04:57:49;;;;;;;3.55;1.63;;;;;;;20.65;42.88;99266.28;4991904;28;20042;-77
2020/12/13 05:00:18;;;;;;;4.57;1.63;;;;;;;20.66;42.57;99262.72;4990991;28;20058;-74
2020/12/13 05:02:43;;;;;;;4.15;2.00;;;;;;;20.66;42.84;99268.00;4991729;28;20507;-75
2020/12/13 05:05:10;;;;;;;2.00;1.40;;;;;;;20.65;42.72;99276.81;4990449;28;20046;-77
2020/12/13 05:07:36;;;;;;;3.50;2.08;;;;;;;20.65;42.79;99270.69;4991549;28;20406;-76
2020/12/13 05:10:02;;;;;;;4.35;2.05;;;;;;;20.63;42.67;99281.28;4991727;28;20038;-76
2020/12/13 05:12:27;;;;;;;3.88;1.45;;;;;;;20.62;42.58;99282.22;4990387;28;20503;-74
2020/12/13 05:14:53;;;;;;;3.47;1.77;;;;;;;20.60;42.97;99284.03;4990094;28;20042;-74
2020/12/13 05:17:18;;;;;;;2.67;1.67;;;;;;;20.61;42.70;99295.41;4994078;28;20050;-75
2020/12/13 05:19:43;;;;;;;2.95;1.48;;;;;;;20.62;42.61;99289.25;4993569;28;20125;-75
2020/12/13 05:22:09;;;;;;;3.42;1.60;;;;;;;20.61;42.75;99291.03;4993805;28;20026;-75
2020/12/13 05:24:36;;;;;;;2.00;1.40;;;;;;;20.62;42.75;99292.75;4995040;28;20113;-75
2020/12/13 05:27:06;;;;;;;3.45;1.73;;;;;;;20.63;42.75;99312.84;4995864;28;20035;-76
2020/12/13 05:29:35;;;;;;;5.07;1.67;;;;;;;20.61;42.62;99306.81;5014448;28;20850;-76
2020/12/13 05:32:19;;;;;;;2.13;1.35;;;;;;;20.60;42.62;99313.00;5013119;28;20034;-75
2020/12/13 05:34:47;;;;;;;4.40;1.85;;;;;;;20.62;42.64;99310.28;4994971;28;20034;-78
2020/12/13 05:37:14;;;;;;;3.28;1.70;;;;;;;20.61;42.82;99311.22;4994796;28;20502;-74
2020/12/13 05:39:49;;;;;;;4.57;2.08;;;;;;;20.59;42.63;99313.91;4994239;28;20081;-76
2020/12/13 05:42:36;;;;;;;4.50;1.73;;;;;;;20.61;42.73;99316.47;4994328;28;20085;-78
2020/12/13 05:50:34;;;;;;;3.95;1.83;;;;;;;20.61;42.74;99303.31;5012465;28;20495;-76
2020/12/13 05:53:02;;;;;;;3.70;2.03;;;;;;;20.61;42.80;99309.44;4994668;28;20034;-76
2020/12/13 05:55:28;;;;;;;3.00;1.67;;;;;;;20.61;42.89;99311.22;4993088;28;20400;-75
2020/12/13 05:57:54;;;;;;;4.50;2.15;;;;;;;20.62;42.58;99312.94;4994036;28;20042;-75
2020/12/13 06:00:20;;;;;;;3.33;1.77;;;;;;;20.62;42.57;99318.19;4994679;28;20138;-76
2020/12/13 06:02:49;;;;;;;5.85;2.38;;;;;;;20.62;42.67;99321.69;5012025;28;20117;-78
2020/12/13 06:05:15;;;;;;;3.72;1.80;;;;;;;20.62;42.69;99313.81;4998941;28;20093;-76
2020/12/13 06:07:51;;;;;;;2.95;1.70;;;;;;;20.59;42.69;99310.41;5004727;28;20038;-76
2020/12/13 06:10:24;;;;;;;3.95;1.95;;;;;;;20.59;42.59;99319.19;4994209;28;20042;-80
2020/12/13 06:13:04;;;;;;;7.18;2.03;;;;;;;20.57;42.53;99321.00;4992894;28;20042;-77
2020/12/13 06:15:32;;;;;;;4.03;1.45;;;;;;;20.58;42.62;99327.97;4991752;28;20043;-76
2020/12/13 06:17:59;;;;;;;3.30;1.50;;;;;;;20.59;42.63;99324.44;4994213;28;20046;-74
2020/12/13 06:20:25;;;;;;;4.47;1.75;;;;;;;20.59;42.69;99318.31;4992407;28;20042;-79
2020/12/13 06:22:52;;;;;;;4.60;1.80;;;;;;;20.60;42.59;99325.28;4992799;28;20073;-77
2020/12/13 06:25:19;;;;;;;4.25;1.70;;;;;;;20.59;42.83;99332.34;5012805;28;20034;-79
2020/12/13 06:27:47;;;;;;;5.07;2.10;;;;;;;20.58;42.71;99335.00;4999267;28;20050;-76
2020/12/13 06:30:15;;;;;;;4.57;1.95;;;;;;;20.58;42.75;99340.28;4993802;28;20430;-76
2020/12/13 06:32:41;;;;;;;3.88;1.70;;;;;;;20.58;42.67;99338.50;4993650;28;20037;-78
2020/12/13 06:35:08;;;;;;;2.88;1.90;;;;;;;20.57;42.60;99334.16;4992773;28;20123;-77
2020/12/13 06:37:36;;;;;;;3.00;1.83;;;;;;;20.57;42.59;99347.31;4993417;28;20037;-77
2020/12/13 06:40:05;;;;;;;4.63;1.70;;;;;;;20.57;42.71;99342.06;4993512;28;20518;-76
2020/12/13 06:42:35;;;;;;;3.80;1.70;;;;;;;20.58;42.52;99345.53;4993615;28;20035;-76
2020/12/13 06:45:03;;;;;;;4.47;1.88;;;;;;;20.57;42.45;99339.44;4992670;28;20045;-74
2020/12/13 06:47:30;;;;;;;5.78;2.10;;;;;;;20.58;42.51;99346.41;4991417;28;20034;-76
2020/12/13 06:49:56;;;;;;;4.30;2.15;;;;;;;20.57;42.72;99346.44;4993321;28;20092;-76
2020/12/13 06:52:34;;;;;;;3.88;2.08;;;;;;;20.56;42.43;99345.59;4992011;28;20519;-76
2020/12/13 06:55:05;;;;;;;3.45;1.80;;;;;;;20.57;42.66;99347.31;4992142;28;20046;-75
2020/12/13 06:57:33;;;;;;;3.35;1.52;;;;;;;20.57;42.56;99349.94;4993045;28;20494;-76
2020/12/13 07:00:04;;;;;;;4.95;2.00;;;;;;;20.56;42.54;99353.50;4993500;28;20030;-75
2020/12/13 07:02:55;;;;;;;4.18;1.85;;;;;;;20.55;42.45;99346.50;4992895;28;20066;-76
2020/12/13 07:05:22;;;;;;;3.28;1.52;;;;;;;20.57;42.69;99354.34;4991798;28;20038;-76
2020/12/13 07:07:56;;;;;;;4.00;1.90;;;;;;;20.55;42.54;99354.41;4993151;28;20045;-74
2020/12/13 07:10:21;;;;;;;3.80;1.77;;;;;;;20.57;42.46;99363.13;4992907;28;20502;-78
2020/12/13 07:12:55;;;;;;;3.95;1.55;;;;;;;20.57;42.46;99359.59;4992909;28;20038;-76
2020/12/13 07:15:38;;;;;;;4.38;2.10;;;;;;;20.57;42.71;99363.13;4994173;28;20499;-76
2020/12/13 07:18:04;;;;;;;3.85;1.35;;;;;;;20.56;42.58;99361.41;4998022;28;20087;-74
2020/12/13 07:20:29;;;;;;;4.53;2.00;;;;;;;20.56;42.62;99371.03;5010986;28;20049;-77
2020/12/13 07:22:58;;;;;;;5.18;2.00;;;;;;;20.56;42.50;99374.56;5008779;28;20113;-76
2020/12/13 07:25:24;;;;;;;3.60;1.35;;;;;;;20.58;42.68;99371.84;4992961;28;20522;-77
2020/12/13 07:27:52;;;;;;;3.33;1.45;;;;;;;20.58;42.60;99374.50;5007709;28;20038;-76
2020/12/13 07:30:17;;;;;;;4.47;1.70;;;;;;;20.57;42.49;99368.38;4992697;28;20503;-75
2020/12/13 07:32:43;;;;;;;2.30;1.48;;;;;;;20.58;42.49;99372.72;4995954;28;20018;-74
2020/12/13 07:35:14;;;;;;;3.47;1.60;;;;;;;20.57;42.45;99367.50;5011208;28;20069;-74
2020/12/13 07:37:41;;;;;;;3.55;2.05;;;;;;;20.58;42.56;99375.38;5011968;28;20038;-75
2020/12/13 07:40:11;;;;;;;3.30;1.83;;;;;;;20.58;42.52;99378.00;5012150;28;20395;-78
2020/12/13 07:42:36;;;;;;;2.95;1.55;;;;;;;20.58;42.37;99371.84;5011941;28;20117;-76
2020/12/13 07:45:02;;;;;;;3.03;1.60;;;;;;;20.58;42.67;99380.63;5011826;28;20465;-76
2020/12/13 07:47:28;;;;;;;3.97;2.03;;;;;;;20.57;42.71;99381.53;5012122;28;20510;-76
2020/12/13 07:50:01;;;;;;;4.07;1.70;;;;;;;20.59;42.65;99381.47;5010043;28;20036;-78
2020/12/13 07:52:27;;;;;;;7.38;2.03;;;;;;;20.61;42.58;99385.78;5009281;28;20034;-80
2020/12/13 07:54:52;;;;;;;6.25;1.73;;;;;;;20.62;42.50;99392.78;5009866;28;20049;-78
2020/12/13 07:57:18;;;;;;;5.90;2.15;;;;;;;20.64;42.47;99397.97;5010560;28;20038;-78
2020/12/13 07:59:43;;;;;;;6.03;2.13;;;;;;;20.65;42.55;99405.81;5010846;28;20080;-79
2020/12/13 08:02:11;;;;;;;4.38;1.50;;;;;;;20.66;42.44;99396.16;5010657;28;20140;-78
2020/12/13 08:04:44;;;;;;;7.50;1.92;;;;;;;20.65;42.30;99402.31;5010699;28;20034;-79
2020/12/13 08:07:11;;;;;;;3.58;1.70;;;;;;;20.69;42.49;99401.31;5010404;28;20088;-80
2020/12/13 08:09:38;;;;;;;4.53;1.88;;;;;;;20.69;42.32;99407.41;5010579;28;20030;-77
2020/12/13 08:12:05;;;;;;;4.07;1.88;;;;;;;20.71;42.52;99401.25;5010561;28;20083;-77
2020/12/13 08:14:31;;;;;;;5.35;1.92;;;;;;;20.73;42.35;99413.41;5012265;28;20033;-73
2020/12/13 08:16:57;;;;;;;6.43;1.65;;;;;;;20.71;42.42;99412.63;5012218;28;20049;-75
2020/12/13 08:19:42;;;;;;;4.65;1.45;;;;;;;20.73;42.41;99409.94;5005303;28;20064;-76
2020/12/13 08:22:32;;;;;;;5.50;1.75;;;;;;;20.71;42.42;99407.34;5009197;28;20104;-78
2020/12/13 08:25:01;;;;;;;3.47;1.30;;;;;;;20.72;42.32;99416.13;5008299;28;20038;-73
2020/12/13 08:27:29;;;;;;;3.60;1.50;;;;;;;20.71;42.38;99423.16;5026859;28;20105;-78
2020/12/13 08:29:59;;;;;;;7.25;1.73;;;;;;;20.72;42.37;99432.75;4994562;28;20120;-77
2020/12/13 08:32:30;;;;;;;8.38;2.22;;;;;;;20.77;42.48;99424.75;5009907;28;20038;-79
2020/12/13 08:35:11;;;;;;;10.18;1.88;;;;;;;20.74;42.51;99436.22;5008341;28;20144;-78
2020/12/13 08:37:37;;;;;;;4.53;2.25;;;;;;;20.76;42.57;99433.56;5009174;28;20033;-79
2020/12/13 08:40:08;;;;;;;5.57;1.83;;;;;;;20.76;42.11;99437.03;5011463;28;20449;-77
2020/12/13 08:42:33;;;;;;;6.80;2.13;;;;;;;20.77;42.58;99437.91;5011690;28;20117;-78
2020/12/13 08:44:59;;;;;;;6.00;2.08;;;;;;;20.82;42.53;99442.09;5011442;28;20112;-79
2020/12/13 08:47:30;;;;;;;4.47;2.08;;;;;;;22.04;40.51;99441.00;4993686;28;20026;-80
2020/12/13 08:49:56;;;;;;;13.73;2.15;;;;;;;21.90;40.57;99444.22;5011308;28;20145;-78
2020/12/13 08:52:23;;;;;;;5.65;2.17;;;;;;;21.57;41.23;99445.44;5012745;28;20509;-76
2020/12/13 08:54:50;;;;;;;3.75;1.65;;;;;;;21.52;41.27;99449.19;5014213;28;20033;-79
2020/12/13 08:57:37;;;;;;;4.22;1.50;;;;;;;22.66;39.88;99449.88;5013848;28;20034;-78
2020/12/13 09:00:09;;;;;;;4.35;2.08;;;;;;;23.03;38.81;99450.00;5015297;28;20121;-78
2020/12/13 09:02:34;;;;;;;9.40;2.10;;;;;;;23.59;38.05;99450.13;5013892;28;20026;-79
2020/12/13 09:05:01;;;;;;;4.90;1.45;;;;;;;23.95;37.41;99459.88;4997175;28;20091;-78
2020/12/13 09:07:33;;;;;;;6.93;1.85;;;;;;;24.61;36.19;99468.97;4997384;28;20534;-80
2020/12/13 09:10:14;;;;;;;8.02;1.73;;;;;;;25.12;36.19;99465.50;5013845;28;20077;-80
2020/12/13 09:12:41;;;;;;;3.28;1.50;;;;;;;25.03;35.71;99464.19;5015052;28;20044;-77
2020/12/13 09:15:12;;;;;;;5.03;2.28;;;;;;;24.84;36.67;99472.22;5013297;28;20049;-80
2020/12/13 09:17:38;;;;;;;3.45;1.95;;;;;;;24.45;36.95;99465.41;5014865;28;20608;-77
2020/12/13 09:20:05;;;;;;;3.95;1.52;;;;;;;23.69;38.13;99459.34;4993633;28;20072;-81
2020/12/13 09:22:30;;;;;;;4.18;1.58;;;;;;;23.26;38.93;99464.84;5011559;28;20046;-80
2020/12/13 09:24:58;;;;;;;6.00;1.70;;;;;;;23.03;39.35;99470.31;5010638;28;20507;-79
2020/12/13 09:27:24;;;;;;;3.88;1.88;;;;;;;22.88;39.77;99480.63;5010019;28;20066;-78
2020/12/13 09:29:51;;;;;;;3.97;1.92;;;;;;;22.74;40.03;99488.28;4994173;28;20404;-79
2020/12/13 09:32:18;;;;;;;6.18;2.05;;;;;;;22.66;40.29;99493.88;5000749;28;20038;-79
2020/12/13 09:34:45;;;;;;;4.28;1.70;;;;;;;22.61;40.51;99491.44;4986002;28;20525;-79
2020/12/13 09:37:16;;;;;;;5.65;2.00;;;;;;;22.58;40.49;99490.72;5004200;28;20419;-79
2020/12/13 09:39:42;;;;;;;5.05;1.70;;;;;;;22.58;40.66;99482.81;5006088;28;20026;-76
2020/12/13 09:42:08;;;;;;;3.67;1.92;;;;;;;22.60;40.69;99495.00;5029810;28;20034;-79
2020/12/13 09:44:33;;;;;;;3.17;1.60;;;;;;;22.64;40.39;99490.47;5013043;28;20084;-79
2020/12/13 09:47:00;;;;;;;4.05;1.92;;;;;;;22.63;40.93;99494.03;5013442;28;20038;-77
2020/12/13 09:49:30;;;;;;;6.18;1.55;;;;;;;22.67;40.83;99495.59;4997063;28;20380;-81
2020/12/13 09:52:02;;;;;;;5.07;1.55;;;;;;;22.65;40.94;99503.59;5014217;28;20061;-80
2020/12/13 09:54:29;;;;;;;4.97;1.27;;;;;;;22.65;41.00;99497.47;4993394;28;20372;-78
2020/12/13 09:56:55;;;;;;;4.88;1.98;;;;;;;22.65;41.30;99506.25;4993471;28;20579;-80
2020/12/13 09:59:21;;;;;;;4.13;1.50;;;;;;;22.68;41.10;99505.25;5001444;28;20041;-78
2020/12/13 10:01:49;;;;;;;4.55;1.70;;;;;;;22.68;41.17;99499.97;5009375;28;20027;-79
2020/12/13 10:04:15;;;;;;;6.45;1.98;;;;;;;22.67;41.18;99498.25;4994202;28;20083;-80
2020/12/13 10:06:50;;;;;;;4.78;1.60;;;;;;;22.68;41.28;99499.97;4993113;28;20030;-77
2020/12/13 10:09:16;;;;;;;4.03;1.48;;;;;;;22.70;40.85;99500.75;4994227;28;20044;-77
2020/12/13 10:11:43;;;;;;;2.30;1.23;;;;;;;22.72;41.28;99498.91;4977173;28;20035;-77
2020/12/13 10:14:13;;;;;;;4.35;1.65;;;;;;;22.72;41.21;99498.06;5002019;28;20650;-78
2020/12/13 10:16:41;;;;;;;2.30;1.27;;;;;;;22.72;41.20;99504.19;4995885;28;20506;-81
2020/12/13 10:19:07;;;;;;;2.55;1.48;;;;;;;22.74;41.28;99497.06;4998442;28;20113;-77
2020/12/13 10:21:35;;;;;;;5.55;1.80;;;;;;;22.73;41.23;99500.63;5004261;28;20556;-79
2020/12/13 10:24:01;;;;;;;3.80;1.45;;;;;;;22.73;41.11;99492.72;4999524;28;20053;-76
2020/12/13 10:26:30;;;;;;;3.67;1.50;;;;;;;22.73;41.09;99494.50;5009989;28;20430;-80
2020/12/13 10:28:56;;;;;;;4.72;1.52;;;;;;;22.71;41.24;99491.91;4996680;28;20113;-79
2020/12/13 10:31:29;;;;;;;4.53;1.50;;;;;;;22.70;41.37;99492.00;5000262;28;20034;-80
2020/12/13 10:33:56;;;;;;;3.50;1.40;;;;;;;22.68;41.30;99492.03;5008833;28;20084;-79
2020/12/13 10:36:21;;;;;;;20.00;11.05;;;;;;;22.63;41.47;99489.59;4993536;28;20045;-76
2020/12/13 10:38:48;;;;;;;18.13;11.50;;;;;;;22.58;41.05;99496.84;4993096;28;20034;-77
2020/12/13 10:41:15;;;;;;;15.88;8.05;;;;;;;22.54;41.07;99486.50;4992415;28;20038;-77
2020/12/13 10:43:40;;;;;;;14.98;9.18;;;;;;;22.47;41.18;99492.06;4993268;28;20034;-78
2020/12/13 10:46:06;;;;;;;16.00;7.28;;;;;;;22.41;40.69;99494.91;4993146;28;20039;-77
2020/12/13 10:48:32;;;;;;;15.10;7.43;;;;;;;22.36;40.47;99505.66;4992328;28;20557;-76
2020/12/13 10:50:58;;;;;;;10.27;6.03;;;;;;;22.30;40.35;99497.97;4999759;28;20117;-75
2020/12/13 10:53:24;;;;;;;13.07;6.70;;;;;;;22.26;40.32;99496.41;5012766;28;20153;-77
2020/12/13 10:55:49;;;;;;;12.98;6.47;;;;;;;22.25;40.21;99501.75;5000400;28;20041;-77
2020/12/13 10:58:15;;;;;;;21.77;13.05;;;;;;;22.20;40.21;99494.84;4992094;28;20038;-77
2020/12/13 11:00:40;;;;;;;19.92;11.23;;;;;;;22.23;40.06;99493.91;4993132;28;20042;-79
2020/12/13 11:03:05;;;;;;;19.63;11.18;;;;;;;22.24;39.90;99489.47;5008404;28;20030;-79
2020/12/13 11:05:31;;;;;;;13.38;7.03;;;;;;;22.24;39.36;99481.53;4993097;28;20030;-78
2020/12/13 11:07:56;;;;;;;17.70;7.40;;;;;;;22.20;39.76;99479.03;4989468;28;20057;-75
2020/12/13 11:10:22;;;;;;;9.55;4.78;;;;;;;22.10;39.54;99479.50;4990875;28;20848;-75
2020/12/13 11:12:47;;;;;;;11.82;6.07;;;;;;;22.11;39.63;99468.03;5002646;28;20038;-77
2020/12/13 11:15:12;;;;;;;11.50;5.95;;;;;;;22.10;39.60;99468.94;4991688;28;20042;-74
2020/12/13 11:17:38;;;;;;;13.55;7.07;;;;;;;22.07;39.83;99469.06;4993461;28;20034;-75
2020/12/13 11:20:04;;;;;;;13.98;6.53;;;;;;;22.05;39.92;99471.75;4992955;28;20138;-77
2020/12/13 11:22:29;;;;;;;13.40;6.93;;;;;;;22.07;39.95;99467.25;4996970;28;20045;-75
2020/12/13 11:24:54;;;;;;;16.42;6.75;;;;;;;22.05;40.02;99466.47;4992867;28;20044;-75
2020/12/13 11:27:20;;;;;;;16.33;6.95;;;;;;;22.02;40.13;99458.69;4992630;28;20038;-78
2020/12/13 11:29:45;;;;;;;11.13;6.72;;;;;;;22.02;40.09;99466.63;4992457;28;20038;-79
2020/12/13 11:32:10;;;;;;;14.38;6.60;;;;;;;21.99;40.44;99461.47;4991635;28;20023;-73
2020/12/13 11:34:36;;;;;;;13.02;6.80;;;;;;;22.00;40.24;99464.03;4992563;28;20038;-76
2020/12/13 11:37:07;;;;;;;14.18;6.97;;;;;;;22.03;40.53;99455.13;4992348;28;20109;-79
2020/12/13 11:39:35;;;;;;;16.25;6.90;;;;;;;22.05;40.21;99455.91;4991228;28;20049;-77
2020/12/13 11:42:01;;;;;;;14.02;7.18;;;;;;;22.05;40.26;99456.78;4992418;28;20038;-76